Terminal Aerodrome Forecast
Issued by NWS Pittsburgh, PA

Current Version | Previous Version | Graphics & Text | Print | Product List | Glossary On
Versions: 1 2 3 4 5 6 7 8 9 10 11 12 13 14 15 16 17 18 19 20 21 22 23 24 25 26 27 28 29 30
349
FTUS41 KPBZ 061615 AAB
TAFPIT
TAF AMD
KPIT 061615Z 0616/0718 35015G23KT P6SM SCT040 BKN250
     FM062300 35010KT 5SM -SHRA OVC035
     FM070100 34008KT P6SM BKN045
     FM071500 23006KT P6SM BKN090=

USA.gov is the U.S. government's official web portal to all federal, state and local government web resources and services.